Time;durP1;ratioP1;P1;durP2;ratioP2;P2;SDS_P1;SDS_P2;PMS_P1;PMS_P2;Temp;Humidity;BMP_temperature;BMP_pressure;BME280_temperature;BME280_humidity;BME280_pressure;Samples;Min_cycle;Max_cycle;Signal;HPM_P1;HPM_P2
2022/05/26 00:00:09;;;;;;;4.65;2.60;;;;;;;14.59;86.30;101629.13;5117390;28;20032;-65
2022/05/26 00:02:34;;;;;;;4.80;2.50;;;;;;;14.59;86.55;101629.13;5117225;28;20437;-65
2022/05/26 00:04:59;;;;;;;3.90;2.40;;;;;;;14.56;86.27;101621.25;5117144;28;20028;-63
2022/05/26 00:07:25;;;;;;;5.60;2.42;;;;;;;14.53;86.75;101621.34;5117465;28;20366;-64
2022/05/26 00:09:50;;;;;;;3.90;2.50;;;;;;;14.52;87.30;101622.25;5117458;28;20028;-64
2022/05/26 00:12:18;;;;;;;5.07;2.60;;;;;;;14.53;87.53;101618.72;5117303;28;20339;-65
2022/05/26 00:14:44;;;;;;;5.00;3.10;;;;;;;14.51;87.24;101620.50;5117323;28;20442;-64
2022/05/26 00:17:09;;;;;;;4.25;2.38;;;;;;;14.52;87.25;101630.16;5116917;28;20130;-65
2022/05/26 00:19:34;;;;;;;4.32;2.38;;;;;;;14.50;87.52;101624.03;5116860;28;20032;-64
2022/05/26 00:22:00;;;;;;;6.47;2.75;;;;;;;14.53;87.27;101624.84;5117104;28;20435;-65
2022/05/26 00:24:25;;;;;;;4.75;2.80;;;;;;;14.58;86.87;101627.38;5116855;28;20056;-65
2022/05/26 00:26:51;;;;;;;6.53;3.05;;;;;;;14.53;87.37;101623.97;5116660;28;20039;-64
2022/05/26 00:29:17;;;;;;;7.05;3.25;;;;;;;14.46;87.87;101628.47;5116705;28;20087;-65
2022/05/26 00:31:42;;;;;;;7.78;2.97;;;;;;;14.52;87.56;101630.16;5116837;28;20408;-64
2022/05/26 00:34:08;;;;;;;7.22;3.03;;;;;;;14.50;88.11;101645.97;5116366;28;20334;-64
2022/05/26 00:36:42;;;;;;;7.57;3.00;;;;;;;14.50;87.73;101629.28;5116523;28;20050;-64
2022/05/26 00:39:13;;;;;;;7.75;3.30;;;;;;;14.53;87.91;101648.56;5116701;28;20050;-64
2022/05/26 00:41:40;;;;;;;7.13;3.20;;;;;;;14.55;87.65;101632.69;5116524;28;20035;-66
2022/05/26 00:44:06;;;;;;;9.40;3.40;;;;;;;14.49;88.21;101644.22;5116307;28;20149;-65
2022/05/26 00:46:46;;;;;;;8.38;3.17;;;;;;;14.49;88.40;101644.22;5116196;28;20118;-65
2022/05/26 00:49:19;;;;;;;8.48;3.38;;;;;;;14.52;88.28;101638.91;5116367;28;20081;-64
2022/05/26 00:51:46;;;;;;;8.23;3.25;;;;;;;14.44;88.45;101629.38;5116649;28;20039;-65
2022/05/26 00:54:18;;;;;;;7.22;3.70;;;;;;;14.52;88.04;101633.66;5116160;28;20035;-64
2022/05/26 00:57:02;;;;;;;6.35;3.60;;;;;;;14.53;88.34;101642.41;5116130;28;20024;-64
2022/05/26 00:59:53;;;;;;;7.50;3.08;;;;;;;14.55;87.80;101640.59;5116277;28;20069;-64
2022/05/26 01:02:23;;;;;;;5.22;2.92;;;;;;;14.63;88.44;101638.72;5115594;28;20020;-64
2022/05/26 01:04:55;;;;;;;8.40;4.20;;;;;;;14.55;88.05;101636.19;5115470;28;20431;-66
2022/05/26 01:07:25;;;;;;;8.18;4.25;;;;;;;14.49;88.77;101638.97;5115925;28;20035;-63
2022/05/26 01:09:51;;;;;;;8.23;3.70;;;;;;;14.45;88.88;101639.03;5115835;28;20031;-66
2022/05/26 01:12:16;;;;;;;9.10;3.92;;;;;;;14.52;88.63;101645.94;5116109;28;20452;-65
2022/05/26 01:14:49;;;;;;;7.75;4.05;;;;;;;14.47;88.93;101640.75;5115933;28;20032;-64
2022/05/26 01:17:23;;;;;;;10.75;3.80;;;;;;;14.45;89.46;101644.28;5115874;28;20104;-64
2022/05/26 01:20:07;;;;;;;11.05;3.95;;;;;;;14.48;89.24;101646.88;5115954;28;20034;-65
2022/05/26 01:23:02;;;;;;;9.80;4.07;;;;;;;14.37;89.39;101638.28;5115475;28;20035;-65
2022/05/26 01:26:05;;;;;;;8.23;4.25;;;;;;;14.53;88.85;101650.31;5115921;28;20032;-65
2022/05/26 01:29:03;;;;;;;9.75;3.85;;;;;;;14.50;88.86;101650.38;5115799;28;20066;-65
2022/05/26 01:31:43;;;;;;;10.93;4.00;;;;;;;14.50;89.33;101658.25;5115566;28;20027;-64
2022/05/26 01:34:10;;;;;;;10.55;4.35;;;;;;;14.47;89.60;101648.66;5115389;28;20066;-65
2022/05/26 01:36:51;;;;;;;9.43;4.53;;;;;;;14.48;89.45;101647.75;5115833;28;20046;-66
2022/05/26 01:39:27;;;;;;;9.88;4.00;;;;;;;14.46;89.78;101646.91;5115907;28;20100;-64
2022/05/26 01:42:14;;;;;;;11.13;4.13;;;;;;;14.58;89.13;101648.44;5115491;28;20023;-65
2022/05/26 01:44:51;;;;;;;14.05;4.97;;;;;;;14.60;89.52;101657.19;5115453;28;20027;-64
2022/05/26 01:47:16;;;;;;;12.13;5.47;;;;;;;14.48;89.72;101657.41;5115538;28;20347;-64
2022/05/26 01:50:01;;;;;;;10.57;5.20;;;;;;;14.48;89.93;101662.69;5115335;28;20031;-64
2022/05/26 01:52:35;;;;;;;10.75;5.10;;;;;;;14.55;89.63;101670.44;5115382;28;20031;-64
2022/05/26 01:55:35;;;;;;;13.20;5.68;;;;;;;14.59;89.22;101673.91;5114638;28;20027;-65
2022/05/26 01:58:18;;;;;;;11.23;6.18;;;;;;;14.47;89.64;101674.13;5115816;28;20093;-65
2022/05/26 02:00:45;;;;;;;14.68;6.20;;;;;;;14.48;90.24;101673.22;5115293;28;20071;-64
2022/05/26 02:03:15;;;;;;;12.88;6.38;;;;;;;14.45;90.45;101678.53;5115420;28;20036;-65
2022/05/26 02:05:45;;;;;;;13.82;6.30;;;;;;;14.49;90.21;101669.69;5114892;28;20078;-65
2022/05/26 02:08:17;;;;;;;13.82;7.03;;;;;;;14.47;90.43;101687.28;5115009;28;20139;-64
2022/05/26 02:11:16;;;;;;;19.17;7.85;;;;;;;14.50;89.83;101676.69;5115436;28;20024;-64
2022/05/26 02:13:59;;;;;;;14.68;7.82;;;;;;;14.46;90.14;101689.03;5062378;28;20051;-65
2022/05/26 02:16:45;;;;;;;14.38;8.00;;;;;;;14.46;90.21;101686.41;5119088;28;20030;-64
2022/05/26 02:19:18;;;;;;;15.57;8.15;;;;;;;14.41;90.58;101685.59;5119216;28;20050;-64
2022/05/26 02:21:49;;;;;;;16.90;7.97;;;;;;;14.39;90.72;101682.09;5119836;28;20059;-63
2022/05/26 02:24:17;;;;;;;16.83;8.10;;;;;;;14.35;90.57;101666.38;5119106;28;20044;-64
2022/05/26 02:26:42;;;;;;;14.48;8.00;;;;;;;14.47;90.55;101692.56;5119212;28;20046;-65
2022/05/26 02:31:53;;;;;;;17.48;8.05;;;;;;;14.45;90.43;101699.59;5119276;28;20167;-65
2022/05/26 02:34:20;;;;;;;14.90;7.75;;;;;;;14.53;89.77;101706.50;5119020;28;20042;-65
2022/05/26 02:36:50;;;;;;;16.00;8.30;;;;;;;14.40;90.65;101704.03;5118692;28;20043;-65
2022/05/26 02:39:15;;;;;;;13.95;7.70;;;;;;;14.38;90.86;101700.53;5118380;28;20027;-64
2022/05/26 02:41:41;;;;;;;15.35;8.10;;;;;;;14.35;90.99;101701.50;5119004;28;20037;-65
2022/05/26 02:44:08;;;;;;;16.52;8.43;;;;;;;14.30;91.25;101695.41;5118665;28;20106;-64
2022/05/26 02:46:50;;;;;;;16.98;8.38;;;;;;;14.31;91.03;101696.28;5118893;28;20092;-65
2022/05/26 02:49:27;;;;;;;19.67;8.43;;;;;;;14.34;91.57;101705.00;5118658;28;20044;-65
2022/05/26 02:52:11;;;;;;;14.70;7.70;;;;;;;14.31;91.11;101705.06;5118667;28;20043;-66
2022/05/26 02:54:42;;;;;;;20.83;7.90;;;;;;;14.41;91.11;101714.56;5118461;28;20024;-64
2022/05/26 02:57:38;;;;;;;19.33;8.88;;;;;;;14.40;90.90;101712.81;5118779;28;20122;-65
2022/05/26 03:00:16;;;;;;;22.15;9.85;;;;;;;14.46;90.73;101717.16;5118710;28;20389;-64
2022/05/26 03:02:47;;;;;;;17.38;8.60;;;;;;;14.32;91.24;101708.56;5118721;28;20023;-65
2022/05/26 03:05:18;;;;;;;17.77;8.77;;;;;;;14.30;91.40;101716.47;5118307;28;20127;-65
2022/05/26 03:07:48;;;;;;;17.83;9.25;;;;;;;14.33;91.22;101719.06;5118334;28;20042;-65
2022/05/26 03:10:16;;;;;;;17.23;9.05;;;;;;;14.27;91.66;101717.38;5118448;28;20114;-64
2022/05/26 03:12:41;;;;;;;19.08;9.23;;;;;;;14.46;90.00;101707.47;5117801;28;20066;-65
2022/05/26 03:15:08;;;;;;;20.83;9.27;;;;;;;14.31;91.26;101706.81;5118453;28;20027;-64
2022/05/26 03:17:34;;;;;;;24.23;9.82;;;;;;;14.22;91.69;101705.16;5118175;28;20096;-64
2022/05/26 03:19:59;;;;;;;24.77;9.75;;;;;;;14.26;91.61;101718.28;5117976;28;20040;-64
2022/05/26 03:22:24;;;;;;;20.38;9.65;;;;;;;14.23;91.73;101715.69;5118173;28;20031;-65
2022/05/26 03:24:51;;;;;;;18.25;9.60;;;;;;;14.20;91.84;101714.84;5116774;28;20119;-64
2022/05/26 03:27:16;;;;;;;19.92;8.82;;;;;;;14.09;92.03;101707.13;5117986;28;20027;-64
2022/05/26 03:29:42;;;;;;;18.98;10.43;;;;;;;14.18;91.99;101728.06;5117573;28;20160;-65
2022/05/26 03:32:07;;;;;;;21.77;10.05;;;;;;;14.18;92.09;101729.81;5117895;28;20028;-64
2022/05/26 03:42:47;;;;;;;24.35;9.25;;;;;;;14.21;91.78;101750.81;5117779;28;20419;-65
2022/05/26 03:45:16;;;;;;;24.13;9.15;;;;;;;14.16;92.43;101740.38;5117518;28;20063;-65
2022/05/26 03:47:41;;;;;;;20.00;8.57;;;;;;;14.22;92.05;101745.53;5117478;28;20028;-64
2022/05/26 03:50:08;;;;;;;20.42;8.80;;;;;;;14.15;92.29;101743.91;5117145;28;20353;-65
2022/05/26 03:52:33;;;;;;;26.33;9.55;;;;;;;14.17;92.34;101742.13;5114208;28;20093;-64
2022/05/26 03:54:58;;;;;;;20.65;8.40;;;;;;;14.19;92.03;101745.59;5117243;28;20035;-66
2022/05/26 03:57:26;;;;;;;22.65;8.73;;;;;;;14.14;92.48;101749.19;5117025;28;20023;-64
2022/05/26 03:59:51;;;;;;;24.95;8.35;;;;;;;14.12;92.57;101754.47;5117128;28;20354;-64
2022/05/26 04:02:17;;;;;;;22.27;8.65;;;;;;;14.09;92.71;101749.22;5117081;28;20028;-64
2022/05/26 04:04:42;;;;;;;22.23;8.60;;;;;;;14.08;92.80;101762.41;5116984;28;20106;-64
2022/05/26 04:07:07;;;;;;;17.83;8.30;;;;;;;14.01;92.91;101752.88;5116996;28;20023;-64
2022/05/26 04:09:33;;;;;;;20.63;8.10;;;;;;;13.96;93.25;101755.56;5117291;28;20416;-64
2022/05/26 04:11:58;;;;;;;18.90;7.82;;;;;;;13.93;93.47;101763.47;5116782;28;20034;-64
2022/05/26 04:14:23;;;;;;;23.05;7.45;;;;;;;13.84;93.49;101758.34;5116654;28;20028;-64
2022/05/26 04:16:48;;;;;;;22.00;7.28;;;;;;;13.89;93.78;101772.28;5116850;28;20049;-65
2022/05/26 04:19:14;;;;;;;20.55;7.55;;;;;;;13.92;93.65;101772.25;5117576;28;20035;-64
2022/05/26 04:22:14;;;;;;;19.42;7.65;;;;;;;13.93;93.98;101777.50;5116768;28;20059;-64
2022/05/26 04:24:24;;;;;;;21.30;7.80;;;;;;;13.96;93.79;101783.63;5116377;28;20412;-64
2022/05/26 04:26:49;;;;;;;22.60;7.47;;;;;;;13.94;93.35;101768.72;5116993;28;20028;-65
2022/05/26 04:29:15;;;;;;;23.95;7.68;;;;;;;13.99;93.38;101776.56;5117161;28;20031;-65
2022/05/26 04:31:41;;;;;;;27.60;7.97;;;;;;;14.00;93.30;101774.81;5116736;28;20400;-65
2022/05/26 04:34:06;;;;;;;22.77;7.15;;;;;;;14.05;93.03;101784.38;5116394;28;20032;-65
2022/05/26 04:36:31;;;;;;;23.35;7.55;;;;;;;14.07;93.09;101785.22;5116126;28;20031;-64
2022/05/26 04:38:56;;;;;;;22.17;6.88;;;;;;;14.11;92.55;101784.31;5116600;28;20069;-64
2022/05/26 04:41:22;;;;;;;20.33;7.30;;;;;;;14.11;92.90;101781.66;5116473;28;20303;-64
2022/05/26 04:43:47;;;;;;;25.40;8.20;;;;;;;14.18;92.24;101790.38;5116444;28;20353;-64
2022/05/26 04:46:12;;;;;;;23.80;7.93;;;;;;;14.17;92.85;101789.50;5116194;28;20100;-65
2022/05/26 04:48:38;;;;;;;23.13;7.28;;;;;;;14.20;92.29;101785.94;5116510;28;20035;-64
2022/05/26 04:51:03;;;;;;;23.25;7.47;;;;;;;14.19;92.44;101794.75;5116164;28;20420;-65
2022/05/26 04:53:29;;;;;;;20.85;7.20;;;;;;;14.19;92.49;101793.00;5116020;28;20033;-64
2022/05/26 04:55:57;;;;;;;20.92;7.00;;;;;;;14.22;92.21;101798.19;5113160;28;20050;-65
2022/05/26 04:58:23;;;;;;;20.15;7.13;;;;;;;14.15;91.95;101774.63;5116128;28;20074;-65
2022/05/26 05:00:48;;;;;;;19.52;7.07;;;;;;;14.30;91.92;101803.38;5115407;28;20031;-64
2022/05/26 05:03:13;;;;;;;23.63;6.88;;;;;;;14.39;92.01;101810.25;5116084;28;20046;-64
2022/05/26 05:05:38;;;;;;;24.52;7.82;;;;;;;14.43;90.93;101812.88;5115867;28;20066;-65
2022/05/26 05:08:04;;;;;;;16.90;6.55;;;;;;;14.42;91.37;101815.50;5115879;28;20031;-65
2022/05/26 05:10:29;;;;;;;23.40;7.93;;;;;;;14.34;91.32;101805.06;5112688;28;20092;-65
2022/05/26 05:12:56;;;;;;;23.95;7.20;;;;;;;14.49;90.93;101825.09;5116217;28;20028;-64
2022/05/26 05:15:27;;;;;;;20.63;7.90;;;;;;;14.54;91.12;101828.53;5115799;28;20080;-65
2022/05/26 05:17:52;;;;;;;24.60;7.30;;;;;;;14.65;90.95;101823.09;5115760;28;20031;-64
2022/05/26 05:20:17;;;;;;;17.25;6.57;;;;;;;14.69;90.57;101827.44;5115843;28;20039;-65
2022/05/26 05:23:04;;;;;;;18.17;7.13;;;;;;;14.73;90.46;101835.25;5115330;28;20051;-65
2022/05/26 05:25:38;;;;;;;21.38;7.45;;;;;;;14.73;90.28;101834.38;5115753;28;20027;-65
2022/05/26 05:28:09;;;;;;;22.25;7.10;;;;;;;14.76;90.28;101839.63;5115407;28;20027;-63
2022/05/26 05:30:42;;;;;;;21.98;7.45;;;;;;;14.79;89.45;101842.22;5115572;28;20076;-65
2022/05/26 05:33:12;;;;;;;29.17;7.90;;;;;;;14.77;89.91;101846.63;5115454;28;20107;-64
2022/05/26 05:35:50;;;;;;;21.85;7.40;;;;;;;14.82;89.12;101850.06;5115870;28;20064;-65
2022/05/26 05:38:16;;;;;;;23.83;6.93;;;;;;;14.82;89.42;101848.31;5115501;28;20031;-65
2022/05/26 05:40:41;;;;;;;20.63;6.13;;;;;;;14.88;89.26;101842.09;5115330;28;20046;-64
2022/05/26 05:43:07;;;;;;;18.70;6.68;;;;;;;14.98;88.13;101856.84;5115408;28;20027;-64
2022/05/26 05:45:32;;;;;;;21.10;7.22;;;;;;;14.96;88.21;101845.47;5115217;28;20023;-65
2022/05/26 05:47:57;;;;;;;26.70;7.97;;;;;;;15.03;88.16;101848.88;5115015;28;20038;-66
2022/05/26 05:50:23;;;;;;;23.58;7.25;;;;;;;15.11;88.76;101850.50;5115550;28;20339;-64
2022/05/26 05:52:48;;;;;;;25.08;8.00;;;;;;;15.17;87.48;101860.94;5115532;28;20118;-65
2022/05/26 05:55:14;;;;;;;25.25;7.55;;;;;;;15.22;87.29;101860.88;5115271;28;20162;-63
2022/05/26 05:57:39;;;;;;;20.90;7.07;;;;;;;15.19;87.59;101853.00;5114962;28;20036;-65
2022/05/26 06:00:06;;;;;;;23.55;7.78;;;;;;;15.20;87.42;101849.47;5115449;28;20031;-65
2022/05/26 06:02:31;;;;;;;23.02;7.80;;;;;;;15.19;87.04;101858.28;5115671;28;20485;-64
2022/05/26 06:04:57;;;;;;;25.45;7.03;;;;;;;15.32;87.30;101865.09;5115887;28;20139;-65
2022/05/26 06:07:22;;;;;;;23.48;7.75;;;;;;;15.41;86.49;101872.00;5115445;28;20035;-65
2022/05/26 06:09:49;;;;;;;20.00;6.65;;;;;;;15.49;85.48;101878.00;5114756;28;20344;-64
2022/05/26 06:12:14;;;;;;;24.00;7.40;;;;;;;15.40;86.57;101870.25;5115253;28;20445;-64
2022/05/26 06:14:42;;;;;;;20.77;7.50;;;;;;;15.55;86.16;101881.44;5115116;28;20046;-64
2022/05/26 06:17:08;;;;;;;18.83;7.43;;;;;;;15.63;85.42;101889.22;5115551;28;20027;-64
2022/05/26 06:19:35;;;;;;;24.55;7.38;;;;;;;15.63;85.28;101886.56;5115291;28;20047;-63
2022/05/26 06:22:19;;;;;;;21.80;7.85;;;;;;;15.78;86.29;101881.00;5115138;28;20039;-64
2022/05/26 06:24:46;;;;;;;27.80;8.02;;;;;;;15.81;85.13;101880.97;5115290;28;20078;-61
2022/05/26 06:29:59;;;;;;;24.45;9.65;;;;;;;15.70;85.43;101893.50;5115034;28;20050;-62
2022/05/26 06:37:54;;;;;;;25.08;9.52;;;;;;;15.85;85.09;101897.63;5114947;28;20458;-61
2022/05/26 06:40:20;;;;;;;19.25;9.95;;;;;;;15.89;84.40;101909.88;5115178;28;20028;-62
2022/05/26 06:42:47;;;;;;;24.10;10.60;;;;;;;15.92;83.54;101904.53;5114927;28;20038;-63
2022/05/26 06:45:15;;;;;;;28.40;11.30;;;;;;;15.89;83.80;101899.31;5114507;28;20421;-62
2022/05/26 06:47:40;;;;;;;20.38;10.82;;;;;;;15.90;82.77;101916.91;5115003;28;20115;-61
2022/05/26 06:50:06;;;;;;;25.23;11.02;;;;;;;15.92;82.32;101904.53;5114715;28;20418;-61
2022/05/26 06:52:31;;;;;;;22.67;10.75;;;;;;;15.98;82.44;101912.31;5111545;28;20047;-61
2022/05/26 06:54:58;;;;;;;25.65;11.20;;;;;;;16.20;82.34;101918.09;5114744;28;20351;-61
2022/05/26 06:57:24;;;;;;;22.50;11.90;;;;;;;16.30;80.96;101911.69;5114494;28;20031;-62
2022/05/26 06:59:50;;;;;;;25.75;11.95;;;;;;;16.26;80.41;101928.53;5115393;28;20050;-61
2022/05/26 07:02:15;;;;;;;22.75;11.95;;;;;;;16.23;80.31;101918.91;5118435;28;20354;-62
2022/05/26 07:04:42;;;;;;;24.55;11.98;;;;;;;16.26;80.59;101928.53;5118344;28;20028;-62
2022/05/26 07:07:07;;;;;;;23.42;11.68;;;;;;;16.32;80.96;101923.97;5118250;28;20339;-62
2022/05/26 07:09:33;;;;;;;21.65;11.32;;;;;;;16.45;79.41;101934.31;5118413;28;20031;-61
2022/05/26 07:11:58;;;;;;;19.92;11.30;;;;;;;16.57;79.57;101942.00;5118178;28;20324;-62
2022/05/26 07:14:24;;;;;;;19.42;10.07;;;;;;;16.47;78.80;101943.06;5117914;28;20080;-61
2022/05/26 07:16:50;;;;;;;19.95;9.52;;;;;;;16.43;79.46;101938.75;5117985;28;20032;-62
2022/05/26 07:19:17;;;;;;;21.13;10.23;;;;;;;16.49;79.17;101946.56;5118025;28;20124;-62
2022/05/26 07:21:46;;;;;;;21.30;10.55;;;;;;;16.67;77.83;101951.50;5117952;28;20114;-61
2022/05/26 07:24:11;;;;;;;19.95;10.50;;;;;;;16.60;76.60;101945.44;5118012;28;20100;-63
2022/05/26 07:26:37;;;;;;;22.45;11.20;;;;;;;16.60;76.43;101952.50;5118233;28;20450;-62
2022/05/26 07:29:03;;;;;;;18.58;10.27;;;;;;;16.60;77.13;101957.78;5117910;28;20031;-61
2022/05/26 07:31:28;;;;;;;18.80;9.80;;;;;;;16.62;75.57;101959.47;5117648;28;20036;-62
2022/05/26 07:33:54;;;;;;;19.35;10.52;;;;;;;16.73;76.03;101955.78;5117607;28;20077;-63
2022/05/26 07:41:52;;;;;;;17.65;10.48;;;;;;;16.80;75.06;101966.19;5117906;28;20050;-62
2022/05/26 07:44:17;;;;;;;18.83;10.30;;;;;;;16.75;75.26;101962.78;5117900;28;20043;-64
2022/05/26 07:46:43;;;;;;;15.95;9.15;;;;;;;16.99;73.90;101978.09;5117376;28;20049;-64
2022/05/26 07:49:09;;;;;;;16.35;9.82;;;;;;;17.05;73.62;101954.19;5117701;28;20038;-64
2022/05/26 07:51:34;;;;;;;18.13;11.05;;;;;;;17.22;73.67;101968.78;5117477;28;20096;-64
2022/05/26 07:54:00;;;;;;;17.30;10.27;;;;;;;17.36;73.73;101969.34;5099363;28;20104;-64
2022/05/26 07:56:30;;;;;;;16.75;11.02;;;;;;;17.18;73.39;101964.47;5117298;28;20358;-64
2022/05/26 07:58:55;;;;;;;17.42;9.85;;;;;;;17.07;73.07;101967.38;5117284;28;20027;-64
2022/05/26 08:01:20;;;;;;;16.85;10.55;;;;;;;17.11;74.67;101970.81;5117357;28;20437;-63
2022/05/26 08:03:45;;;;;;;19.50;10.45;;;;;;;17.17;74.72;101960.97;5117253;28;20074;-64
2022/05/26 08:06:13;;;;;;;19.80;10.37;;;;;;;17.12;73.92;101969.94;5117413;28;20028;-63
2022/05/26 08:08:38;;;;;;;15.50;9.63;;;;;;;17.09;74.48;101975.28;5117378;28;20293;-64
2022/05/26 08:11:04;;;;;;;17.67;9.98;;;;;;;17.12;74.48;101980.50;5098296;28;20477;-63
2022/05/26 08:13:29;;;;;;;19.77;10.48;;;;;;;17.10;73.81;101971.72;5116891;28;20096;-64
2022/05/26 08:15:54;;;;;;;16.48;10.35;;;;;;;17.08;72.81;101970.88;5116989;28;20330;-65
2022/05/26 08:18:20;;;;;;;19.73;11.68;;;;;;;17.08;74.59;101986.75;5117045;28;20051;-64
2022/05/26 08:20:45;;;;;;;21.35;11.15;;;;;;;16.94;73.56;101985.28;5117109;28;20024;-64
2022/05/26 08:23:12;;;;;;;17.65;10.80;;;;;;;16.85;75.03;101985.47;5094859;28;20063;-64
2022/05/26 08:25:38;;;;;;;18.88;10.70;;;;;;;16.89;74.45;101979.22;5096267;28;20031;-64
2022/05/26 08:28:04;;;;;;;17.60;9.75;;;;;;;17.07;73.19;101982.38;5096439;28;20031;-65
2022/05/26 08:30:29;;;;;;;17.25;9.80;;;;;;;17.17;71.59;101983.91;5096063;28;20133;-65
2022/05/26 08:32:55;;;;;;;14.52;7.97;;;;;;;17.35;69.84;101981.69;5096369;28;20036;-64
2022/05/26 08:35:21;;;;;;;11.75;7.72;;;;;;;17.56;69.07;101984.75;5095198;28;20039;-63
2022/05/26 08:37:46;;;;;;;13.05;8.55;;;;;;;17.71;69.69;101987.06;5096062;28;20032;-62
2022/05/26 08:40:30;;;;;;;15.20;9.02;;;;;;;17.78;68.55;101979.84;5096056;28;20487;-62
2022/05/26 08:42:56;;;;;;;13.07;8.07;;;;;;;17.68;68.84;101985.34;5095993;28;20070;-64
2022/05/26 08:45:21;;;;;;;12.70;8.02;;;;;;;17.77;68.59;101984.25;5095807;28;20412;-64
2022/05/26 08:47:48;;;;;;;12.50;7.50;;;;;;;17.96;70.30;101987.31;5095884;28;20106;-62
2022/05/26 08:50:21;;;;;;;15.02;9.15;;;;;;;17.96;68.28;101990.84;5095899;28;20028;-63
2022/05/26 08:52:48;;;;;;;20.48;13.98;;;;;;;18.01;68.60;101988.91;5095778;28;20099;-63
2022/05/26 08:55:17;;;;;;;20.65;14.73;;;;;;;18.25;67.37;101999.78;5096173;28;20060;-64
2022/05/26 08:57:52;;;;;;;24.55;16.67;;;;;;;18.39;67.14;101997.63;5096056;28;20099;-63
2022/05/26 09:00:21;;;;;;;18.75;15.18;;;;;;;18.26;66.60;101997.09;5095797;28;20046;-63
2022/05/26 09:02:48;;;;;;;17.83;13.15;;;;;;;18.36;65.74;101995.06;5095678;28;20028;-64
2022/05/26 09:05:19;;;;;;;16.23;11.38;;;;;;;18.98;65.15;102003.06;5095378;28;20362;-62
2022/05/26 09:13:38;;;;;;;23.92;17.52;;;;;;;19.72;61.70;102000.75;5095561;28;20425;-63
2022/05/26 09:16:07;;;;;;;24.38;16.48;;;;;;;20.56;58.64;101992.53;5095595;28;20353;-64
2022/05/26 09:18:33;;;;;;;17.67;14.93;;;;;;;21.09;56.82;102000.28;5095182;28;20048;-63
2022/05/26 09:21:28;;;;;;;18.75;14.00;;;;;;;20.62;57.91;101984.28;5095953;28;20028;-63
2022/05/26 09:24:13;;;;;;;15.45;13.82;;;;;;;20.26;58.81;102007.72;5106413;28;20407;-63
2022/05/26 09:26:44;;;;;;;16.63;11.90;;;;;;;19.72;60.07;102008.72;5115339;28;20042;-62
2022/05/26 09:29:11;;;;;;;17.13;11.07;;;;;;;19.43;60.11;102008.72;5116011;28;20031;-63
2022/05/26 09:31:45;;;;;;;13.98;10.73;;;;;;;19.08;62.09;102018.63;5115879;28;20046;-63
2022/05/26 09:34:26;;;;;;;20.17;14.68;;;;;;;18.99;62.81;102023.38;5115795;28;20046;-63
2022/05/26 09:36:56;;;;;;;17.10;13.93;;;;;;;19.08;62.58;102031.91;5112164;28;20043;-62
2022/05/26 09:39:30;;;;;;;16.20;12.30;;;;;;;19.35;61.55;102039.97;5115512;28;20042;-62
2022/05/26 09:41:59;;;;;;;17.20;13.90;;;;;;;19.44;60.88;102031.69;5115660;28;20072;-63
2022/05/26 09:44:47;;;;;;;18.55;14.10;;;;;;;19.30;62.14;102037.44;5115278;28;20092;-63
2022/05/26 09:47:37;;;;;;;14.77;13.10;;;;;;;19.25;62.21;102041.16;5115504;28;20036;-63
2022/05/26 09:50:16;;;;;;;16.23;11.38;;;;;;;19.55;60.93;102045.56;5115419;28;20016;-63
2022/05/26 09:52:49;;;;;;;12.82;11.00;;;;;;;19.62;58.72;102041.78;5115537;28;20034;-63
2022/05/26 09:55:24;;;;;;;13.98;10.13;;;;;;;19.33;59.79;102045.31;5115676;28;20092;-63
2022/05/26 09:58:03;;;;;;;16.48;11.65;;;;;;;19.29;61.91;102040.16;5115236;28;20032;-63
2022/05/26 10:00:37;;;;;;;17.73;13.02;;;;;;;19.05;61.09;102047.91;5115361;28;20028;-62
2022/05/26 10:03:08;;;;;;;14.82;12.77;;;;;;;19.32;62.60;102042.72;5115315;28;20058;-63
2022/05/26 10:05:45;;;;;;;14.75;11.85;;;;;;;19.51;60.38;102043.91;5115037;28;20036;-63
2022/05/26 10:08:21;;;;;;;13.30;11.52;;;;;;;19.61;58.56;102045.34;5115141;28;20324;-62
2022/05/26 10:10:56;;;;;;;15.80;11.88;;;;;;;19.72;59.93;102031.75;5115080;28;20520;-63
2022/05/26 10:13:30;;;;;;;14.70;12.02;;;;;;;19.79;58.07;102035.91;5115215;28;20028;-63
2022/05/26 10:16:06;;;;;;;16.20;10.98;;;;;;;20.23;57.48;102049.53;5115436;28;20032;-64
2022/05/26 10:19:09;;;;;;;13.68;9.85;;;;;;;20.43;56.25;102047.91;5115345;28;20024;-63
2022/05/26 10:22:02;;;;;;;12.07;8.50;;;;;;;20.39;56.31;102018.84;5115400;28;20115;-63
2022/05/26 10:24:40;;;;;;;11.27;9.10;;;;;;;20.50;56.09;102052.13;5114652;28;20054;-63
2022/05/26 10:27:39;;;;;;;12.68;10.68;;;;;;;20.54;56.82;102042.25;5097167;28;20042;-63
2022/05/26 10:30:38;;;;;;;11.95;10.68;;;;;;;20.60;56.86;102044.69;5115302;28;20058;-63
2022/05/26 10:33:48;;;;;;;13.48;9.70;;;;;;;20.92;57.30;102039.97;5115219;28;20363;-65
2022/05/26 10:36:36;;;;;;;12.57;9.13;;;;;;;21.03;51.43;102048.41;5118412;28;20085;-65
2022/05/26 10:39:07;;;;;;;12.35;9.68;;;;;;;20.99;52.61;102055.63;5118689;28;20027;-63
2022/05/26 10:41:44;;;;;;;11.82;10.23;;;;;;;20.82;53.29;102047.41;5118762;28;20035;-62
2022/05/26 10:44:15;;;;;;;11.88;8.85;;;;;;;21.00;54.02;102046.72;5119201;28;20327;-62
2022/05/26 10:46:46;;;;;;;11.65;9.85;;;;;;;21.06;54.35;102040.31;5118934;28;20027;-63
2022/05/26 10:49:28;;;;;;;11.90;8.80;;;;;;;21.29;53.81;102050.13;5118687;28;20089;-64
2022/05/26 10:52:12;;;;;;;10.63;9.07;;;;;;;21.22;52.95;102043.28;5118700;28;20356;-63
2022/05/26 10:55:02;;;;;;;11.43;8.95;;;;;;;21.11;50.94;102047.22;5118579;28;20438;-65
2022/05/26 10:57:38;;;;;;;9.40;7.50;;;;;;;20.99;53.04;102029.03;5118583;28;20103;-64
2022/05/26 11:00:08;;;;;;;8.13;7.20;;;;;;;21.22;51.20;102043.28;5118313;28;20019;-62
2022/05/26 11:02:48;;;;;;;10.43;7.60;;;;;;;21.18;53.40;102051.34;5100785;28;20116;-63
2022/05/26 11:05:41;;;;;;;9.45;7.20;;;;;;;21.02;54.21;102042.22;5118684;28;20019;-62
2022/05/26 11:08:24;;;;;;;10.98;6.90;;;;;;;20.93;55.80;102050.56;5118421;28;20037;-62
2022/05/26 11:10:54;;;;;;;13.57;6.40;;;;;;;21.46;54.68;102055.66;5118247;28;20443;-62
2022/05/26 11:13:31;;;;;;;9.63;6.78;;;;;;;21.57;52.75;102042.78;5118192;28;20035;-64
2022/05/26 11:19:25;;;;;;;12.68;8.00;;;;;;;21.14;52.65;102054.19;5118484;28;20050;-63
2022/05/26 11:21:51;;;;;;;9.07;7.00;;;;;;;20.72;52.31;102051.34;5118163;28;20076;-63
2022/05/26 11:24:17;;;;;;;10.48;8.05;;;;;;;20.34;52.64;102037.59;5117973;28;20398;-64
2022/05/26 11:26:50;;;;;;;10.88;7.43;;;;;;;20.39;53.87;102046.31;5117767;28;20096;-62
2022/05/26 11:29:25;;;;;;;13.07;8.65;;;;;;;20.35;52.96;102044.66;5117755;28;20454;-62
2022/05/26 11:38:12;;;;;;;14.68;8.98;;;;;;;20.31;52.96;102043.00;5102803;28;20054;-63
2022/05/26 11:40:56;;;;;;;10.20;8.80;;;;;;;20.16;54.23;102035.56;5117285;28;20055;-62
2022/05/26 11:44:16;;;;;;;12.82;8.70;;;;;;;20.28;53.79;102047.56;5117696;28;20511;-63
2022/05/26 11:46:42;;;;;;;12.43;8.88;;;;;;;19.78;54.13;102040.38;5068150;28;20452;-64
2022/05/26 11:49:28;;;;;;;11.50;7.72;;;;;;;19.54;56.50;102042.97;5117496;28;20034;-63
2022/05/26 11:51:53;;;;;;;11.05;8.70;;;;;;;19.64;56.16;102039.06;5116907;28;20100;-64
2022/05/26 11:54:59;;;;;;;10.30;8.73;;;;;;;19.88;55.62;102032.13;5117451;28;20542;-64
2022/05/26 11:57:37;;;;;;;10.68;8.70;;;;;;;20.27;55.13;102016.56;5102570;28;20446;-63
2022/05/26 12:00:14;;;;;;;11.23;8.60;;;;;;;20.45;54.62;102019.47;5117164;28;20027;-62
2022/05/26 12:02:39;;;;;;;11.35;8.55;;;;;;;20.71;54.54;102023.88;5117576;28;20028;-63
2022/05/26 12:05:44;;;;;;;11.57;8.10;;;;;;;20.75;54.01;102016.66;5117077;28;20046;-63
2022/05/26 12:08:53;;;;;;;13.48;7.30;;;;;;;20.70;53.50;102016.81;5014511;28;20030;-60
2022/05/26 12:11:39;;;;;;;10.30;6.50;;;;;;;20.83;52.96;102015.44;4996470;28;20076;-62
2022/05/26 12:14:06;;;;;;;13.55;7.22;;;;;;;20.88;50.03;102017.94;5107355;28;20044;-61
2022/05/26 12:16:34;;;;;;;9.82;6.13;;;;;;;20.98;51.82;102015.78;5116822;28;20024;-62